createdAt,value
2017-08-28T00:00:53.102Z,4.83
2017-08-28T00:03:21.345Z,5.00
2017-08-28T00:05:50.469Z,5.27
2017-08-28T00:08:35.620Z,5.03
2017-08-28T00:11:04.050Z,6.00
2017-08-28T00:13:32.431Z,5.20
2017-08-28T00:16:01.996Z,5.10
2017-08-28T00:18:30.287Z,4.60
2017-08-28T00:21:05.975Z,9.03
2017-08-28T00:23:34.331Z,5.47
2017-08-28T00:26:04.719Z,6.57
2017-08-28T00:28:33.966Z,5.30
2017-08-28T00:31:02.143Z,5.53
2017-08-28T00:33:30.317Z,4.60
2017-08-28T00:35:59.363Z,5.60
2017-08-28T00:38:30.915Z,4.63
2017-08-28T00:40:59.184Z,4.60
2017-08-28T00:43:27.382Z,6.07
2017-08-28T00:45:56.371Z,4.37
2017-08-28T00:48:24.693Z,5.37
2017-08-28T00:50:54.426Z,4.43
2017-08-28T00:53:22.724Z,4.43
2017-08-28T00:55:51.088Z,4.60
2017-08-28T00:58:20.240Z,6.87
2017-08-28T01:00:48.547Z,4.67
2017-08-28T01:03:16.834Z,4.27
2017-08-28T01:05:45.126Z,4.40
2017-08-28T01:08:13.444Z,6.37
2017-08-28T01:10:42.668Z,5.03
2017-08-28T01:13:10.923Z,4.80
2017-08-28T01:15:39.233Z,5.17
2017-08-28T01:18:07.572Z,4.33
2017-08-28T01:20:35.854Z,4.67
2017-08-28T01:23:04.150Z,4.50
2017-08-28T01:25:32.576Z,3.97
2017-08-28T01:28:02.195Z,4.07
2017-08-28T01:30:30.458Z,3.70
2017-08-28T01:32:59.879Z,5.23
2017-08-28T01:35:28.056Z,5.57
2017-08-28T01:37:56.359Z,5.63
2017-08-28T01:40:24.647Z,6.57
2017-08-28T01:42:52.931Z,7.60
2017-08-28T01:45:21.112Z,6.20
2017-08-28T01:47:49.380Z,6.00
2017-08-28T01:50:17.678Z,6.47
2017-08-28T01:52:45.974Z,7.10
2017-08-28T01:55:14.165Z,6.77
2017-08-28T01:57:42.364Z,8.00
2017-08-28T02:00:10.649Z,6.23
2017-08-28T02:02:38.978Z,7.37
2017-08-28T02:05:07.216Z,7.57
2017-08-28T02:07:35.517Z,6.90
2017-08-28T02:10:03.773Z,7.20
2017-08-28T02:12:31.914Z,6.90
2017-08-28T02:15:00.246Z,7.60
2017-08-28T02:17:28.510Z,7.37
2017-08-28T02:19:56.819Z,7.17
2017-08-28T02:22:25.088Z,7.40
2017-08-28T02:24:53.295Z,9.40
2017-08-28T02:27:21.527Z,7.83
2017-08-28T02:29:49.799Z,8.10
2017-08-28T02:32:18.043Z,7.90
2017-08-28T02:34:46.322Z,8.67
2017-08-28T02:37:14.466Z,9.57
2017-08-28T02:39:42.699Z,8.90
2017-08-28T02:42:10.879Z,12.37
2017-08-28T02:44:39.034Z,9.10
2017-08-28T02:47:07.295Z,9.20
2017-08-28T02:49:35.439Z,9.07
2017-08-28T02:52:09.366Z,9.27
2017-08-28T02:54:37.675Z,9.77
2017-08-28T02:57:05.852Z,9.20
2017-08-28T02:59:34.090Z,9.90
2017-08-28T03:02:02.356Z,11.53
2017-08-28T03:04:30.534Z,10.13
2017-08-28T03:06:58.733Z,10.43
2017-08-28T03:09:26.973Z,10.83
2017-08-28T03:11:55.920Z,10.90
2017-08-28T03:14:24.200Z,10.30
2017-08-28T03:16:52.439Z,11.23
2017-08-28T03:19:20.690Z,10.53
2017-08-28T03:21:48.928Z,12.10
2017-08-28T03:24:17.185Z,13.33
2017-08-28T03:26:45.411Z,10.90
2017-08-28T03:29:13.713Z,12.70
2017-08-28T03:31:41.982Z,11.27
2017-08-28T03:34:10.104Z,11.00
2017-08-28T03:36:38.774Z,11.47
2017-08-28T03:39:06.910Z,14.10
2017-08-28T03:41:35.209Z,12.27
2017-08-28T03:44:03.450Z,10.93
2017-08-28T03:46:55.930Z,12.10
2017-08-28T03:49:28.614Z,12.20
2017-08-28T03:51:56.900Z,11.30
2017-08-28T03:54:25.302Z,10.73
2017-08-28T03:56:59.596Z,13.73
2017-08-28T03:59:33.667Z,12.63
2017-08-28T04:02:09.645Z,10.57
2017-08-28T04:04:38.889Z,10.43
2017-08-28T04:07:13.909Z,12.57
2017-08-28T04:09:42.113Z,13.30
2017-08-28T04:12:19.074Z,12.67
2017-08-28T04:14:49.508Z,12.13
2017-08-28T04:17:17.721Z,11.03
2017-08-28T04:19:49.608Z,13.43
2017-08-28T04:22:20.318Z,12.60
2017-08-28T04:24:52.904Z,12.53
2017-08-28T04:27:26.772Z,14.20
2017-08-28T04:29:54.991Z,10.10
2017-08-28T04:48:57.195Z,10.73
2017-08-28T04:51:25.404Z,13.07
2017-08-28T04:53:55.113Z,12.53
2017-08-28T04:56:23.270Z,11.43
2017-08-28T04:58:51.512Z,10.50
2017-08-28T05:01:23.472Z,11.23
2017-08-28T05:03:51.618Z,14.00
2017-08-28T05:06:21.913Z,10.90
2017-08-28T05:08:50.089Z,11.20
2017-08-28T05:11:18.301Z,10.97
2017-08-28T05:13:46.578Z,11.23
2017-08-28T05:16:14.821Z,11.13
2017-08-28T05:18:43.215Z,10.30
2017-08-28T05:21:11.465Z,13.43
2017-08-28T05:23:39.655Z,11.27
2017-08-28T05:26:07.792Z,19.40
2017-08-28T05:28:36.068Z,14.37
2017-08-28T05:31:04.829Z,12.40
2017-08-28T05:33:37.884Z,8.33
2017-08-28T05:36:06.010Z,8.23
2017-08-28T05:38:34.214Z,7.50
2017-08-28T05:41:03.255Z,8.57
2017-08-28T05:43:31.507Z,12.77
2017-08-28T05:46:00.943Z,10.20
2017-08-28T05:48:29.268Z,8.63
2017-08-28T05:50:57.618Z,8.47
2017-08-28T05:53:27.100Z,13.90
2017-08-28T05:55:55.289Z,10.43
2017-08-28T05:58:27.857Z,9.30
2017-08-28T06:00:56.159Z,12.03
2017-08-28T06:03:24.888Z,11.90
2017-08-28T06:05:53.370Z,11.53
2017-08-28T06:08:21.708Z,13.33
2017-08-28T06:10:58.364Z,8.70
2017-08-28T06:13:26.516Z,11.23
2017-08-28T06:18:48.211Z,12.30
2017-08-28T06:21:16.591Z,11.23
2017-08-28T06:23:49.200Z,10.50
2017-08-28T06:26:17.318Z,11.60
2017-08-28T06:28:45.764Z,14.67
2017-08-28T06:31:14.050Z,18.30
2017-08-28T06:33:42.227Z,12.47
2017-08-28T06:36:10.446Z,9.50
2017-08-28T06:38:40.769Z,12.47
2017-08-28T06:41:09.240Z,15.57
2017-08-28T06:43:38.672Z,12.20
2017-08-28T06:46:06.835Z,14.07
2017-08-28T06:48:35.184Z,14.33
2017-08-28T06:51:03.459Z,13.23
2017-08-28T06:53:33.225Z,14.87
2017-08-28T06:56:03.372Z,15.43
2017-08-28T06:58:33.789Z,10.83
2017-08-28T07:01:02.111Z,13.33
2017-08-28T07:03:31.135Z,11.17
2017-08-28T07:06:00.348Z,11.17
2017-08-28T07:08:28.613Z,10.30
2017-08-28T07:10:58.877Z,9.73
2017-08-28T07:13:34.505Z,12.60
2017-08-28T07:16:02.932Z,9.67
2017-08-28T07:18:31.286Z,10.97
2017-08-28T07:21:02.783Z,7.80
2017-08-28T07:23:39.196Z,8.03
2017-08-28T07:29:25.341Z,10.10
2017-08-28T07:46:59.227Z,6.10
2017-08-28T07:49:44.131Z,6.80
2017-08-28T07:52:13.311Z,5.40
2017-08-28T07:57:52.615Z,7.67
2017-08-28T08:00:20.916Z,4.10
2017-08-28T08:02:49.964Z,6.83
2017-08-28T08:05:18.639Z,4.00
2017-08-28T08:07:47.231Z,3.93
2017-08-28T08:10:15.815Z,3.80
2017-08-28T08:13:04.885Z,3.73
2017-08-28T08:15:33.011Z,6.93
2017-08-28T08:18:13.728Z,6.87
2017-08-28T08:20:44.985Z,5.60
2017-08-28T08:23:13.199Z,5.73
2017-08-28T08:25:41.355Z,6.00
2017-08-28T08:28:09.614Z,7.83
2017-08-28T08:33:37.047Z,4.80
2017-08-28T08:36:06.774Z,5.70
2017-08-28T08:38:37.939Z,4.07
2017-08-28T08:41:07.049Z,7.63
2017-08-28T08:43:35.507Z,4.80
2017-08-28T08:46:04.706Z,5.53
2017-08-28T08:48:33.491Z,3.30
2017-08-28T08:51:04.163Z,4.47
2017-08-28T08:53:32.533Z,2.10
2017-08-28T08:56:01.745Z,4.37
2017-08-28T08:58:31.107Z,4.33
2017-08-28T09:01:00.541Z,5.97
2017-08-28T09:03:31.772Z,3.40
2017-08-28T09:06:02.877Z,2.67
2017-08-28T09:08:32.604Z,3.50
2017-08-28T09:11:05.664Z,4.80
2017-08-28T09:13:34.275Z,3.77
2017-08-28T09:16:04.842Z,3.80
2017-08-28T09:18:35.765Z,10.10
2017-08-28T09:21:04.192Z,5.20
2017-08-28T09:23:32.866Z,3.27
2017-08-28T09:26:05.112Z,3.47
2017-08-28T09:28:55.853Z,3.33
2017-08-28T09:31:24.417Z,2.80
2017-08-28T09:33:57.091Z,4.33
2017-08-28T09:36:26.985Z,4.60
2017-08-28T09:42:00.941Z,2.40
2017-08-28T09:44:32.830Z,5.80
2017-08-28T09:47:12.517Z,4.17
2017-08-28T09:49:40.954Z,4.27
2017-08-28T09:52:10.762Z,4.03
2017-08-28T09:54:41.418Z,5.47
2017-08-28T10:00:21.366Z,4.23
2017-08-28T10:02:54.483Z,2.60
2017-08-28T10:05:22.800Z,2.97
2017-08-28T10:07:51.483Z,5.87
2017-08-28T10:13:19.617Z,4.80
2017-08-28T10:16:03.658Z,4.53
2017-08-28T10:24:28.537Z,4.13
2017-08-28T10:27:06.332Z,4.00
2017-08-28T10:29:34.725Z,4.30
2017-08-28T10:38:04.973Z,7.33
2017-08-28T10:43:43.295Z,4.10
2017-08-28T10:46:11.794Z,5.77
2017-08-28T10:48:49.432Z,4.93
2017-08-28T10:51:20.529Z,7.60
2017-08-28T10:57:23.765Z,8.43
2017-08-28T10:59:57.546Z,5.00
2017-08-28T11:02:25.953Z,3.70
2017-08-28T11:04:55.121Z,4.27
2017-08-28T11:07:24.813Z,3.77
2017-08-28T11:09:54.308Z,6.50
2017-08-28T11:12:23.429Z,2.80
2017-08-28T11:18:09.567Z,4.60
2017-08-28T11:23:14.384Z,4.00
2017-08-28T11:25:44.337Z,3.50
2017-08-28T11:28:22.622Z,1.97
2017-08-28T11:31:09.436Z,4.20
2017-08-28T11:33:41.426Z,3.00
2017-08-28T11:36:12.215Z,3.10
2017-08-28T11:38:46.208Z,5.90
2017-08-28T11:41:16.211Z,5.70
2017-08-28T11:43:49.134Z,6.83
2017-08-28T11:49:15.579Z,5.00
2017-08-28T11:51:59.304Z,3.47
2017-08-28T11:54:28.850Z,4.50
2017-08-28T11:56:58.055Z,6.43
2017-08-28T11:59:26.457Z,6.27
2017-08-28T12:02:17.070Z,3.77
2017-08-28T12:17:58.355Z,3.10
2017-08-28T12:33:05.806Z,3.70
2017-08-28T12:35:33.971Z,7.57
2017-08-28T12:38:17.300Z,3.33
2017-08-28T12:41:00.510Z,2.63
2017-08-28T12:43:28.716Z,5.37
2017-08-28T12:45:57.016Z,3.80
2017-08-28T12:48:27.542Z,2.97
2017-08-28T12:50:56.035Z,4.23
2017-08-28T12:53:24.306Z,3.00
2017-08-28T12:55:52.468Z,4.70
2017-08-28T12:58:20.678Z,3.10
2017-08-28T13:00:49.857Z,4.57
2017-08-28T13:03:18.380Z,3.93
2017-08-28T13:05:46.607Z,3.40
2017-08-28T13:08:14.894Z,4.00
2017-08-28T13:10:43.089Z,3.93
2017-08-28T13:13:11.877Z,4.80
2017-08-28T13:15:40.081Z,3.90
2017-08-28T13:18:08.336Z,3.53
2017-08-28T13:20:37.514Z,3.13
2017-08-28T13:23:05.704Z,4.00
2017-08-28T13:25:35.570Z,6.43
2017-08-28T13:28:03.789Z,3.00
2017-08-28T13:30:32.122Z,4.60
2017-08-28T13:33:00.432Z,3.20
2017-08-28T13:35:28.648Z,4.00
2017-08-28T13:37:56.876Z,3.10
2017-08-28T13:40:24.994Z,4.03
2017-08-28T13:42:53.261Z,5.07
2017-08-28T13:45:21.453Z,3.50
2017-08-28T13:47:49.654Z,3.40
2017-08-28T13:50:18.240Z,4.00
2017-08-28T13:52:47.520Z,4.63
2017-08-28T13:55:15.932Z,4.30
2017-08-28T13:57:49.171Z,4.40
2017-08-28T14:00:17.496Z,4.23
2017-08-28T14:02:45.721Z,6.70
2017-08-28T14:05:13.984Z,4.20
2017-08-28T14:07:48.706Z,4.20
2017-08-28T14:10:17.440Z,8.57
2017-08-28T14:12:45.709Z,4.70
2017-08-28T14:15:14.089Z,4.70
2017-08-28T14:17:47.214Z,3.67
2017-08-28T14:20:15.562Z,4.00
2017-08-28T14:22:43.889Z,4.40
2017-08-28T14:25:12.059Z,3.07
2017-08-28T14:27:40.222Z,3.40
2017-08-28T14:30:08.450Z,3.60
2017-08-28T14:32:36.831Z,4.23
2017-08-28T14:35:05.007Z,3.60
2017-08-28T14:37:33.155Z,4.90
2017-08-28T14:40:01.319Z,3.10
2017-08-28T14:45:09.092Z,7.33
2017-08-28T14:47:37.458Z,3.70
2017-08-28T14:50:05.612Z,3.93
2017-08-28T14:52:33.820Z,5.43
2017-08-28T14:55:02.014Z,6.00
2017-08-28T14:57:30.469Z,4.70
2017-08-28T14:59:58.662Z,4.67
2017-08-28T15:02:26.892Z,6.53
2017-08-28T15:04:55.831Z,6.50
2017-08-28T15:07:24.053Z,9.70
2017-08-28T15:09:52.413Z,5.70
2017-08-28T15:12:21.492Z,3.13
2017-08-28T15:14:49.744Z,4.50
2017-08-28T15:17:18.092Z,3.40
2017-08-28T15:19:46.476Z,4.67
2017-08-28T15:22:14.786Z,5.03
2017-08-28T15:24:42.990Z,3.83
2017-08-28T15:27:12.418Z,4.80
2017-08-28T15:29:40.768Z,5.00
2017-08-28T15:32:09.163Z,6.33
2017-08-28T15:34:37.434Z,5.63
2017-08-28T15:37:05.577Z,3.80
2017-08-28T15:39:34.771Z,3.50
2017-08-28T15:42:03.183Z,4.80
2017-08-28T15:44:32.454Z,5.07
2017-08-28T15:47:00.684Z,4.20
2017-08-28T15:49:32.875Z,3.20
2017-08-28T15:52:01.179Z,3.40
2017-08-28T15:54:29.563Z,5.33
2017-08-28T15:56:57.828Z,4.37
2017-08-28T15:59:26.008Z,4.27
2017-08-28T16:01:54.134Z,4.33
2017-08-28T16:04:23.921Z,6.87
2017-08-28T16:06:52.275Z,5.37
2017-08-28T16:09:21.450Z,4.67
2017-08-28T16:11:49.747Z,3.70
2017-08-28T16:14:18.555Z,5.90
2017-08-28T16:16:46.771Z,3.50
2017-08-28T16:19:17.706Z,3.87
2017-08-28T16:21:46.069Z,4.47
2017-08-28T16:24:15.879Z,3.90
2017-08-28T16:26:44.715Z,3.80
2017-08-28T16:29:13.054Z,3.60
2017-08-28T16:31:41.733Z,3.37
2017-08-28T16:34:13.497Z,3.50
2017-08-28T16:36:42.095Z,4.47
2017-08-28T16:39:10.468Z,4.63
2017-08-28T16:44:41.187Z,3.80
2017-08-28T16:47:10.537Z,5.23
2017-08-28T16:49:39.653Z,3.97
2017-08-28T16:52:07.929Z,3.10
2017-08-28T16:54:36.167Z,3.20
2017-08-28T16:57:05.253Z,3.23
2017-08-28T16:59:33.639Z,3.70
2017-08-28T17:02:01.973Z,3.10
2017-08-28T17:04:30.234Z,3.60
2017-08-28T17:06:59.508Z,4.33
2017-08-28T17:09:27.827Z,4.00
2017-08-28T17:11:56.209Z,3.50
2017-08-28T17:14:24.587Z,3.17
2017-08-28T17:16:53.998Z,3.17
2017-08-28T17:19:22.401Z,3.10
2017-08-28T17:21:50.645Z,5.83
2017-08-28T17:24:21.633Z,3.40
2017-08-28T17:27:00.028Z,3.27
2017-08-28T17:29:28.587Z,3.63
2017-08-28T17:31:56.767Z,5.07
2017-08-28T17:34:24.992Z,5.63
2017-08-28T17:36:55.084Z,4.93
2017-08-28T17:39:24.799Z,3.47
2017-08-28T17:41:55.788Z,3.70
2017-08-28T17:44:29.370Z,3.43
2017-08-28T17:46:58.516Z,3.00
2017-08-28T17:49:26.778Z,4.70
2017-08-28T17:51:54.933Z,4.40
2017-08-28T17:54:23.189Z,8.00
2017-08-28T17:56:51.359Z,3.87
2017-08-28T17:59:19.595Z,3.33
2017-08-28T18:01:50.615Z,3.63
2017-08-28T18:26:42.169Z,4.37
2017-08-28T18:31:53.320Z,3.40
2017-08-28T18:34:21.491Z,3.50
2017-08-28T18:36:51.691Z,3.73
2017-08-28T18:39:26.550Z,5.90
2017-08-28T18:41:54.886Z,4.27
2017-08-28T18:44:24.292Z,4.20
2017-08-28T18:46:54.150Z,5.77
2017-08-28T18:49:24.668Z,5.40
2017-08-28T18:51:55.873Z,5.60
2017-08-28T18:54:25.798Z,5.07
2017-08-28T18:56:58.569Z,6.00
2017-08-28T18:59:53.384Z,6.37
2017-08-28T19:02:23.657Z,5.20
2017-08-28T19:04:58.465Z,3.97
2017-08-28T19:10:37.652Z,5.67
2017-08-28T19:16:02.687Z,8.40
2017-08-28T19:30:20.431Z,8.33
2017-08-28T19:33:02.830Z,7.67
2017-08-28T19:35:45.137Z,4.93
2017-08-28T19:38:31.858Z,6.47
2017-08-28T19:41:01.012Z,4.00
2017-08-28T19:52:46.508Z,5.13
2017-08-28T19:55:14.777Z,5.17
2017-08-28T19:57:46.296Z,7.93
2017-08-28T20:00:16.342Z,4.97
2017-08-28T20:02:51.339Z,4.63
2017-08-28T20:05:23.563Z,4.67
2017-08-28T20:07:53.130Z,9.03
2017-08-28T20:10:28.031Z,6.10
2017-08-28T20:35:10.120Z,4.50
2017-08-28T20:38:01.411Z,5.63
2017-08-28T20:40:30.923Z,5.67
2017-08-28T20:42:59.173Z,4.53
2017-08-28T20:45:27.352Z,3.77
2017-08-28T20:47:57.426Z,5.50
2017-08-28T20:53:26.602Z,4.67
2017-08-28T20:55:54.942Z,4.40
2017-08-28T20:58:23.507Z,4.43
2017-08-28T21:00:54.830Z,5.50
2017-08-28T21:03:23.725Z,7.43
2017-08-28T21:33:07.245Z,5.90
2017-08-28T21:35:36.823Z,7.30
2017-08-28T21:38:06.291Z,5.53
2017-08-28T21:40:34.851Z,4.20
2017-08-28T21:43:03.971Z,5.27
2017-08-28T21:45:32.233Z,4.87
2017-08-28T21:48:08.960Z,5.27
2017-08-28T21:50:37.523Z,4.97
2017-08-28T21:53:06.706Z,4.83
2017-08-28T21:55:34.857Z,4.67
2017-08-28T21:58:03.064Z,5.13
2017-08-28T22:00:31.371Z,5.60
2017-08-28T22:02:59.651Z,4.60
2017-08-28T22:08:38.229Z,4.53
2017-08-28T22:11:11.194Z,3.77
2017-08-28T22:14:08.833Z,5.50
2017-08-28T22:19:15.683Z,5.30
2017-08-28T22:21:47.682Z,4.47
2017-08-28T22:24:19.596Z,4.83
2017-08-28T22:29:58.634Z,4.70
2017-08-28T22:38:56.007Z,4.73
2017-08-28T22:41:24.203Z,4.63
2017-08-28T22:43:59.948Z,4.80
2017-08-28T22:46:28.189Z,4.17
2017-08-28T22:48:58.435Z,4.87
2017-08-28T22:51:26.683Z,5.33
2017-08-28T22:53:54.945Z,5.33
2017-08-28T22:56:23.209Z,5.73
2017-08-28T22:58:52.426Z,5.33
2017-08-28T23:01:20.701Z,5.70
2017-08-28T23:03:53.942Z,6.87
2017-08-28T23:06:22.182Z,5.80
2017-08-28T23:08:50.329Z,6.43
2017-08-28T23:11:18.467Z,6.60
2017-08-28T23:13:46.673Z,7.93
2017-08-28T23:16:14.899Z,6.90
2017-08-28T23:18:43.860Z,6.60
2017-08-28T23:21:12.086Z,6.97
2017-08-28T23:23:40.292Z,6.47
2017-08-28T23:26:08.487Z,7.33
2017-08-28T23:28:36.729Z,6.80
2017-08-28T23:31:04.906Z,6.83
2017-08-28T23:33:33.127Z,6.67
2017-08-28T23:36:01.242Z,6.40
2017-08-28T23:38:29.475Z,6.70
2017-08-28T23:40:57.662Z,5.90
2017-08-28T23:43:25.865Z,7.00
2017-08-28T23:45:56.008Z,6.23
2017-08-28T23:48:24.262Z,9.07
2017-08-28T23:50:52.438Z,7.13
2017-08-28T23:53:20.641Z,7.97
2017-08-28T23:55:48.854Z,6.93
2017-08-28T23:58:17.060Z,6.87
